Pryor, MT (59066)

11:56 AM MDT on September 17, 2014 (GMT -0600)
Hillcrest and southridge | Change Station
CLOSE
Current Station
Personal Weather Station
Location: Billings, MT
Elevation: 3681 ft
Nearby Weather Stations

Elev 3681 ft 45.69 °N, 108.56 °W | Updated 8 seconds ago

Clear
Clear
80.1 °F
Feels Like 79 °F
N
9.4
Wind Variable Wind from SW

Today
High -- | Low -- °F
--% Chance of Precip.
Yesterday
High -- | Low -- °F
Precip. -- in
6:55 AM 7:21 PM
Waning Crescent, 34% visible
Pressure 29.86 in
Visibility 10.0 miles
Clouds Few 10000 ft
Few 25000 ft
Heat Index 79 °F
Dew Point 48 °F
Humidity 32%
Rainfall 0.00 in
Snow Depth 0 in , 0 in , 0 in
UV 5 out of 12
Pollen 6.00 out of 12
Air Quality Not available.
Flu Activity Not available.
METAR KBIL 171653Z 24007KT 10SM FEW100 FEW250 24/09 A2995 RMK AO2 SLP109 T02390089

More Conditions Fewer Conditions

Pressure 29.86 in
Visibility 10.0 miles
Clouds Few 10000 ft
Few 25000 ft
Heat Index 79 °F
Dew Point 48 °F
Humidity 32%
Rainfall 0.00 in
Snow Depth 0 in , 0 in , 0 in
UV 5 out of 12
Pollen 6.00 out of 12
Air Quality Not available.
Flu Activity Not available.
METAR KBIL 171653Z 24007KT 10SM FEW100 FEW250 24/09 A2995 RMK AO2 SLP109 T02390089

More Conditions Fewer Conditions

10-Day Weather Forecast

Almanac

Astronomy

Sep. 17, 2014 Rise Set
Actual Time 6:55 AM MDT 7:21 PM MDT
Civil Twilight 6:25 AM MDT 7:50 PM MDT
Nautical Twilight 5:50 AM MDT 8:25 PM MDT
Astronomical Twilight 5:14 AM MDT 9:01 PM MDT
Moon 12:45 AM MDT 3:44 PM MDT
Length of Visible Light 13h 25m
Length of Day
12h 26m
Tomorrow will be 3m 9s shorter.
Waning Crescent, 34% of the Moon is Illuminated
Today
Waning Crescent
Sep 24
New
Oct 1
First Quarter
Oct 8
Full
Oct 15
Last Quarter

Today's Extremes

State Highs State Lows

Community

WunderPhotos

Upload Photos

1,754,111 photos uploaded!

Nearby

Snow Depth

Station Depth Elevation
Spur Park 0 in 8100 ft
Stahl Peak 0 in 6030 ft
Northeast Entrance 0 in 7350 ft
Cole Creek 0 in 7850 ft
Stringer Creek 0 in 6550 ft

Earthquake Activity

City Distance Mag. Time & Date
No recent earthquake activity has been reported nearby.
Minimum magnitude displayed is 2.5.

Coastal Water Temperatures

Place Temperature
No Stations Reporting

Nearby Weather Stations